sensor_id;sensor_type;location;lat;lon;timestamp;pressure;altitude;pressure_sealevel;temperature
32039;BMP280;18549;42.286;22.688;2023-05-16T00:01:51;95270.94;;;18.77
32039;BMP280;18549;42.286;22.688;2023-05-16T00:04:17;95261.69;;;18.77
32039;BMP280;18549;42.286;22.688;2023-05-16T00:06:44;95250.53;;;18.80
32039;BMP280;18549;42.286;22.688;2023-05-16T00:09:11;95252.28;;;18.79
32039;BMP280;18549;42.286;22.688;2023-05-16T00:11:38;95245.66;;;18.78
32039;BMP280;18549;42.286;22.688;2023-05-16T00:14:04;95251.63;;;18.77
32039;BMP280;18549;42.286;22.688;2023-05-16T00:16:33;95250.06;;;18.76
32039;BMP280;18549;42.286;22.688;2023-05-16T00:19:01;95253.50;;;18.75
32039;BMP280;18549;42.286;22.688;2023-05-16T00:21:28;95251.94;;;18.74
32039;BMP280;18549;42.286;22.688;2023-05-16T00:23:55;95238.75;;;18.72
32039;BMP280;18549;42.286;22.688;2023-05-16T00:26:22;95235.63;;;18.70
32039;BMP280;18549;42.286;22.688;2023-05-16T00:28:49;95233.41;;;18.67
32039;BMP280;18549;42.286;22.688;2023-05-16T00:31:15;95234.97;;;18.68
32039;BMP280;18549;42.286;22.688;2023-05-16T00:33:43;95226.81;;;18.66
32039;BMP280;18549;42.286;22.688;2023-05-16T00:36:10;95222.75;;;18.65
32039;BMP280;18549;42.286;22.688;2023-05-16T00:38:37;95229.31;;;18.66
32039;BMP280;18549;42.286;22.688;2023-05-16T00:41:04;95227.91;;;18.64
32039;BMP280;18549;42.286;22.688;2023-05-16T00:43:30;95239.69;;;18.63
32039;BMP280;18549;42.286;22.688;2023-05-16T00:45:57;95235.75;;;18.61
32039;BMP280;18549;42.286;22.688;2023-05-16T00:48:25;95238.41;;;18.59
32039;BMP280;18549;42.286;22.688;2023-05-16T00:50:53;95237.13;;;18.55
32039;BMP280;18549;42.286;22.688;2023-05-16T00:53:21;95242.00;;;18.57
32039;BMP280;18549;42.286;22.688;2023-05-16T00:55:48;95232.44;;;18.52
32039;BMP280;18549;42.286;22.688;2023-05-16T00:58:15;95225.84;;;18.51
32039;BMP280;18549;42.286;22.688;2023-05-16T01:00:43;95219.25;;;18.50
32039;BMP280;18549;42.286;22.688;2023-05-16T01:03:11;95223.03;;;18.47
32039;BMP280;18549;42.286;22.688;2023-05-16T01:05:39;95218.00;;;18.47
32039;BMP280;18549;42.286;22.688;2023-05-16T01:08:07;95216.09;;;18.49
32039;BMP280;18549;42.286;22.688;2023-05-16T01:10:40;95223.47;;;18.50
32039;BMP280;18549;42.286;22.688;2023-05-16T01:13:13;95218.59;;;18.41
32039;BMP280;18549;42.286;22.688;2023-05-16T01:15:47;95227.34;;;18.29
32039;BMP280;18549;42.286;22.688;2023-05-16T01:18:20;95217.13;;;18.30
32039;BMP280;18549;42.286;22.688;2023-05-16T01:20:55;95214.50;;;18.32
32039;BMP280;18549;42.286;22.688;2023-05-16T01:23:37;95214.81;;;18.29
32039;BMP280;18549;42.286;22.688;2023-05-16T01:26:14;95216.66;;;18.27
32039;BMP280;18549;42.286;22.688;2023-05-16T01:28:42;95208.84;;;18.30
32039;BMP280;18549;42.286;22.688;2023-05-16T01:31:09;95202.72;;;18.32
32039;BMP280;18549;42.286;22.688;2023-05-16T01:33:36;95198.34;;;18.34
32039;BMP280;18549;42.286;22.688;2023-05-16T01:36:07;95195.84;;;18.34
32039;BMP280;18549;42.286;22.688;2023-05-16T01:38:40;95195.19;;;18.32
32039;BMP280;18549;42.286;22.688;2023-05-16T01:41:14;95196.00;;;18.33
32039;BMP280;18549;42.286;22.688;2023-05-16T01:43:45;95193.50;;;18.33
32039;BMP280;18549;42.286;22.688;2023-05-16T01:46:15;95201.03;;;18.33
32039;BMP280;18549;42.286;22.688;2023-05-16T01:48:50;95196.00;;;18.33
32039;BMP280;18549;42.286;22.688;2023-05-16T01:51:20;95207.75;;;18.32
32039;BMP280;18549;42.286;22.688;2023-05-16T01:53:48;95209.31;;;18.33
32039;BMP280;18549;42.286;22.688;2023-05-16T01:56:17;95196.00;;;18.33
32039;BMP280;18549;42.286;22.688;2023-05-16T01:58:47;95192.84;;;18.31
32039;BMP280;18549;42.286;22.688;2023-05-16T02:01:15;95190.50;;;18.29
32039;BMP280;18549;42.286;22.688;2023-05-16T02:03:41;95185.78;;;18.26
32039;BMP280;18549;42.286;22.688;2023-05-16T02:06:08;95180.00;;;18.26
32039;BMP280;18549;42.286;22.688;2023-05-16T02:08:34;95179.34;;;18.24
32039;BMP280;18549;42.286;22.688;2023-05-16T02:11:01;95174.00;;;18.19
32039;BMP280;18549;42.286;22.688;2023-05-16T02:13:29;95182.47;;;18.18
32039;BMP280;18549;42.286;22.688;2023-05-16T02:15:56;95179.03;;;18.19
32039;BMP280;18549;42.286;22.688;2023-05-16T02:18:23;95177.13;;;18.21
32039;BMP280;18549;42.286;22.688;2023-05-16T02:20:50;95178.06;;;18.12
32039;BMP280;18549;42.286;22.688;2023-05-16T02:23:17;95179.62;;;18.13
32039;BMP280;18549;42.286;22.688;2023-05-16T02:25:44;95181.19;;;18.14
32039;BMP280;18549;42.286;22.688;2023-05-16T02:28:11;95184.66;;;18.13
32039;BMP280;18549;42.286;22.688;2023-05-16T02:30:39;95185.28;;;18.15
32039;BMP280;18549;42.286;22.688;2023-05-16T02:33:06;95182.78;;;18.15
32039;BMP280;18549;42.286;22.688;2023-05-16T02:35:32;95177.75;;;18.15
32039;BMP280;18549;42.286;22.688;2023-05-16T02:37:59;95180.91;;;18.17
32039;BMP280;18549;42.286;22.688;2023-05-16T02:40:26;95172.97;;;18.04
32039;BMP280;18549;42.286;22.688;2023-05-16T02:42:53;95173.25;;;17.93
32039;BMP280;18549;42.286;22.688;2023-05-16T02:45:19;95177.59;;;17.83
32039;BMP280;18549;42.286;22.688;2023-05-16T02:47:47;95170.06;;;17.83
32039;BMP280;18549;42.286;22.688;2023-05-16T02:50:14;95174.13;;;17.84
32039;BMP280;18549;42.286;22.688;2023-05-16T02:52:41;95172.00;;;17.89
32039;BMP280;18549;42.286;22.688;2023-05-16T02:55:09;95170.72;;;17.93
32039;BMP280;18549;42.286;22.688;2023-05-16T02:57:36;95166.34;;;17.95
32039;BMP280;18549;42.286;22.688;2023-05-16T03:00:04;95169.37;;;17.99
32039;BMP280;18549;42.286;22.688;2023-05-16T03:02:31;95172.50;;;18.01
32039;BMP280;18549;42.286;22.688;2023-05-16T03:04:59;95161.37;;;18.03
32039;BMP280;18549;42.286;22.688;2023-05-16T03:07:26;95158.88;;;18.03
32039;BMP280;18549;42.286;22.688;2023-05-16T03:09:52;95165.44;;;18.04
32039;BMP280;18549;42.286;22.688;2023-05-16T03:12:19;95171.41;;;18.03
32039;BMP280;18549;42.286;22.688;2023-05-16T03:14:45;95172.97;;;18.04
32039;BMP280;18549;42.286;22.688;2023-05-16T03:17:12;95177.88;;;18.06
32039;BMP280;18549;42.286;22.688;2023-05-16T03:19:39;95185.53;;;18.04
32039;BMP280;18549;42.286;22.688;2023-05-16T03:22:07;95191.47;;;18.03
32039;BMP280;18549;42.286;22.688;2023-05-16T03:24:33;95198.38;;;18.01
32039;BMP280;18549;42.286;22.688;2023-05-16T03:27:00;95203.66;;;17.98
32039;BMP280;18549;42.286;22.688;2023-05-16T03:29:28;95202.06;;;17.89
32039;BMP280;18549;42.286;22.688;2023-05-16T03:31:55;95195.00;;;17.85
32039;BMP280;18549;42.286;22.688;2023-05-16T03:34:21;95189.19;;;17.84
32039;BMP280;18549;42.286;22.688;2023-05-16T03:36:49;95190.47;;;17.88
32039;BMP280;18549;42.286;22.688;2023-05-16T03:39:17;95189.81;;;17.86
32039;BMP280;18549;42.286;22.688;2023-05-16T03:41:44;95185.75;;;17.85
32039;BMP280;18549;42.286;22.688;2023-05-16T03:44:11;95186.19;;;17.81
32039;BMP280;18549;42.286;22.688;2023-05-16T03:46:37;95195.59;;;17.79
32039;BMP280;18549;42.286;22.688;2023-05-16T03:49:04;95181.31;;;17.80
32039;BMP280;18549;42.286;22.688;2023-05-16T03:51:31;95184.97;;;17.85
32039;BMP280;18549;42.286;22.688;2023-05-16T03:53:58;95177.28;;;17.86
32039;BMP280;18549;42.286;22.688;2023-05-16T03:56:26;95180.56;;;17.87
32039;BMP280;18549;42.286;22.688;2023-05-16T03:58:53;95182.47;;;17.85
32039;BMP280;18549;42.286;22.688;2023-05-16T04:01:20;95179.66;;;17.88
32039;BMP280;18549;42.286;22.688;2023-05-16T04:03:47;95177.59;;;17.83
32039;BMP280;18549;42.286;22.688;2023-05-16T04:06:15;95172.88;;;17.81
32039;BMP280;18549;42.286;22.688;2023-05-16T04:08:41;95176.03;;;17.83
32039;BMP280;18549;42.286;22.688;2023-05-16T04:11:09;95183.37;;;17.84
32039;BMP280;18549;42.286;22.688;2023-05-16T04:13:37;95175.22;;;17.82
32039;BMP280;18549;42.286;22.688;2023-05-16T04:16:05;95171.31;;;17.80
32039;BMP280;18549;42.286;22.688;2023-05-16T04:18:31;95167.88;;;17.81
32039;BMP280;18549;42.286;22.688;2023-05-16T04:20:58;95179.78;;;17.79
32039;BMP280;18549;42.286;22.688;2023-05-16T04:23:25;95196.69;;;17.77
32039;BMP280;18549;42.286;22.688;2023-05-16T04:25:51;95192.44;;;17.77
32039;BMP280;18549;42.286;22.688;2023-05-16T04:28:18;95190.69;;;17.70
32039;BMP280;18549;42.286;22.688;2023-05-16T04:30:47;95166.56;;;17.69
32039;BMP280;18549;42.286;22.688;2023-05-16T04:33:14;95181.44;;;17.70
32039;BMP280;18549;42.286;22.688;2023-05-16T04:35:41;95177.81;;;17.65
32039;BMP280;18549;42.286;22.688;2023-05-16T04:38:08;95174.69;;;17.63
32039;BMP280;18549;42.286;22.688;2023-05-16T04:40:35;95180.00;;;17.60
32039;BMP280;18549;42.286;22.688;2023-05-16T04:43:01;95177.31;;;17.61
32039;BMP280;18549;42.286;22.688;2023-05-16T04:45:28;95183.47;;;17.67
32039;BMP280;18549;42.286;22.688;2023-05-16T04:47:56;95183.16;;;17.70
32039;BMP280;18549;42.286;22.688;2023-05-16T04:50:23;95171.09;;;17.73
32039;BMP280;18549;42.286;22.688;2023-05-16T04:52:50;95188.22;;;17.78
32039;BMP280;18549;42.286;22.688;2023-05-16T04:55:16;95197.31;;;17.79
32039;BMP280;18549;42.286;22.688;2023-05-16T04:57:43;95192.31;;;17.79
32039;BMP280;18549;42.286;22.688;2023-05-16T05:00:11;95201.09;;;17.83
32039;BMP280;18549;42.286;22.688;2023-05-16T05:02:38;95184.03;;;17.86
32039;BMP280;18549;42.286;22.688;2023-05-16T05:05:07;95188.25;;;17.85
32039;BMP280;18549;42.286;22.688;2023-05-16T05:07:34;95181.53;;;17.86
32039;BMP280;18549;42.286;22.688;2023-05-16T05:10:01;95170.72;;;17.85
32039;BMP280;18549;42.286;22.688;2023-05-16T05:12:28;95177.00;;;17.89
32039;BMP280;18549;42.286;22.688;2023-05-16T05:14:55;95170.09;;;17.91
32039;BMP280;18549;42.286;22.688;2023-05-16T05:17:21;95181.41;;;17.95
32039;BMP280;18549;42.286;22.688;2023-05-16T05:19:48;95179.53;;;17.97
32039;BMP280;18549;42.286;22.688;2023-05-16T05:22:16;95173.94;;;18.03
32039;BMP280;18549;42.286;22.688;2023-05-16T05:24:43;95175.50;;;18.04
32039;BMP280;18549;42.286;22.688;2023-05-16T05:27:10;95165.19;;;18.07
32039;BMP280;18549;42.286;22.688;2023-05-16T05:29:36;95168.81;;;18.13
32039;BMP280;18549;42.286;22.688;2023-05-16T05:32:03;95171.28;;;18.05
32039;BMP280;18549;42.286;22.688;2023-05-16T05:34:30;95173.28;;;18.01
32039;BMP280;18549;42.286;22.688;2023-05-16T05:36:57;95162.31;;;18.02
32039;BMP280;18549;42.286;22.688;2023-05-16T05:39:25;95152.91;;;18.04
32039;BMP280;18549;42.286;22.688;2023-05-16T05:41:52;95146.53;;;18.10
32039;BMP280;18549;42.286;22.688;2023-05-16T05:44:18;95148.75;;;18.13
32039;BMP280;18549;42.286;22.688;2023-05-16T05:46:45;95143.88;;;18.11
32039;BMP280;18549;42.286;22.688;2023-05-16T05:49:12;95144.50;;;18.13
32039;BMP280;18549;42.286;22.688;2023-05-16T05:51:39;95147.66;;;18.15
32039;BMP280;18549;42.286;22.688;2023-05-16T05:54:06;95152.38;;;18.18
32039;BMP280;18549;42.286;22.688;2023-05-16T05:56:34;95149.72;;;18.19
32039;BMP280;18549;42.286;22.688;2023-05-16T05:59:00;95150.16;;;18.15
32039;BMP280;18549;42.286;22.688;2023-05-16T06:01:27;95141.56;;;18.17
32039;BMP280;18549;42.286;22.688;2023-05-16T06:03:54;95157.56;;;18.24
32039;BMP280;18549;42.286;22.688;2023-05-16T06:06:21;95145.47;;;18.20
32039;BMP280;18549;42.286;22.688;2023-05-16T06:08:48;95146.87;;;18.15
32039;BMP280;18549;42.286;22.688;2023-05-16T06:11:15;95151.53;;;18.10
32039;BMP280;18549;42.286;22.688;2023-05-16T06:13:43;95145.72;;;18.01
32039;BMP280;18549;42.286;22.688;2023-05-16T06:16:09;95143.03;;;18.03
32039;BMP280;18549;42.286;22.688;2023-05-16T06:18:36;95146.69;;;18.08
32039;BMP280;18549;42.286;22.688;2023-05-16T06:21:03;95142.16;;;18.12
32039;BMP280;18549;42.286;22.688;2023-05-16T06:23:30;95140.78;;;18.17
32039;BMP280;18549;42.286;22.688;2023-05-16T06:25:57;95134.50;;;18.21
32039;BMP280;18549;42.286;22.688;2023-05-16T06:28:23;95151.44;;;18.27
32039;BMP280;18549;42.286;22.688;2023-05-16T06:30:51;95145.19;;;18.31
32039;BMP280;18549;42.286;22.688;2023-05-16T06:33:18;95152.25;;;18.35
32039;BMP280;18549;42.286;22.688;2023-05-16T06:35:45;95158.06;;;18.36
32039;BMP280;18549;42.286;22.688;2023-05-16T06:38:13;95164.19;;;18.41
32039;BMP280;18549;42.286;22.688;2023-05-16T06:40:39;95152.13;;;18.45
32039;BMP280;18549;42.286;22.688;2023-05-16T06:43:06;95156.97;;;18.46
32039;BMP280;18549;42.286;22.688;2023-05-16T06:45:33;95157.59;;;18.48
32039;BMP280;18549;42.286;22.688;2023-05-16T06:48:02;95154.00;;;18.50
32039;BMP280;18549;42.286;22.688;2023-05-16T06:50:29;95152.75;;;18.54
32039;BMP280;18549;42.286;22.688;2023-05-16T06:52:55;95155.44;;;18.61
32039;BMP280;18549;42.286;22.688;2023-05-16T06:55:22;95155.59;;;18.67
32039;BMP280;18549;42.286;22.688;2023-05-16T06:57:49;95133.94;;;18.66
32039;BMP280;18549;42.286;22.688;2023-05-16T07:00:17;95138.81;;;18.68
32039;BMP280;18549;42.286;22.688;2023-05-16T07:02:44;95135.50;;;18.75
32039;BMP280;18549;42.286;22.688;2023-05-16T07:05:12;95128.63;;;18.77
32039;BMP280;18549;42.286;22.688;2023-05-16T07:07:38;95119.19;;;18.79
32039;BMP280;18549;42.286;22.688;2023-05-16T07:10:06;95116.84;;;18.85
32039;BMP280;18549;42.286;22.688;2023-05-16T07:12:34;95105.41;;;18.83
32039;BMP280;18549;42.286;22.688;2023-05-16T07:15:01;95103.81;;;18.82
32039;BMP280;18549;42.286;22.688;2023-05-16T07:17:28;95106.81;;;18.85
32039;BMP280;18549;42.286;22.688;2023-05-16T07:19:55;95106.50;;;18.88
32039;BMP280;18549;42.286;22.688;2023-05-16T07:22:23;95096.47;;;18.81
32039;BMP280;18549;42.286;22.688;2023-05-16T07:24:50;95086.25;;;18.82
32039;BMP280;18549;42.286;22.688;2023-05-16T07:27:21;95079.97;;;18.86
32039;BMP280;18549;42.286;22.688;2023-05-16T07:29:48;95092.37;;;18.87
32039;BMP280;18549;42.286;22.688;2023-05-16T07:32:14;95096.28;;;18.90
32039;BMP280;18549;42.286;22.688;2023-05-16T07:34:41;95086.06;;;18.91
32039;BMP280;18549;42.286;22.688;2023-05-16T07:37:08;95090.81;;;18.94
32039;BMP280;18549;42.286;22.688;2023-05-16T07:39:38;95089.72;;;18.97
32039;BMP280;18549;42.286;22.688;2023-05-16T07:42:05;95095.34;;;18.99
32039;BMP280;18549;42.286;22.688;2023-05-16T07:44:32;95098.00;;;19.05
32039;BMP280;18549;42.286;22.688;2023-05-16T07:46:59;95088.16;;;19.04
32039;BMP280;18549;42.286;22.688;2023-05-16T07:49:26;95088.28;;;19.10
32039;BMP280;18549;42.286;22.688;2023-05-16T07:51:52;95096.75;;;19.09
32039;BMP280;18549;42.286;22.688;2023-05-16T07:54:19;95089.84;;;19.03
32039;BMP280;18549;42.286;22.688;2023-05-16T07:56:47;95102.41;;;19.11
32039;BMP280;18549;42.286;22.688;2023-05-16T07:59:14;95097.22;;;19.20
32039;BMP280;18549;42.286;22.688;2023-05-16T08:01:40;95085.25;;;19.30
32039;BMP280;18549;42.286;22.688;2023-05-16T08:04:07;95091.81;;;19.39
32039;BMP280;18549;42.286;22.688;2023-05-16T08:06:33;95089.94;;;19.49
32039;BMP280;18549;42.286;22.688;2023-05-16T08:09:01;95093.50;;;19.54
32039;BMP280;18549;42.286;22.688;2023-05-16T08:11:28;95093.94;;;19.58
32039;BMP280;18549;42.286;22.688;2023-05-16T08:13:56;95096.19;;;19.53
32039;BMP280;18549;42.286;22.688;2023-05-16T08:16:22;95096.81;;;19.55
32039;BMP280;18549;42.286;22.688;2023-05-16T08:18:49;95096.47;;;19.58
32039;BMP280;18549;42.286;22.688;2023-05-16T08:21:16;95092.69;;;19.62
32039;BMP280;18549;42.286;22.688;2023-05-16T08:23:42;95093.66;;;19.61
32039;BMP280;18549;42.286;22.688;2023-05-16T08:26:09;95084.37;;;19.61
32039;BMP280;18549;42.286;22.688;2023-05-16T08:28:36;95090.94;;;19.70
32039;BMP280;18549;42.286;22.688;2023-05-16T08:31:04;95084.94;;;19.71
32039;BMP280;18549;42.286;22.688;2023-05-16T08:33:30;95069.56;;;19.74
32039;BMP280;18549;42.286;22.688;2023-05-16T08:35:57;95060.91;;;19.77
32039;BMP280;18549;42.286;22.688;2023-05-16T08:38:25;95063.09;;;19.80
32039;BMP280;18549;42.286;22.688;2023-05-16T08:40:52;95069.53;;;19.82
32039;BMP280;18549;42.286;22.688;2023-05-16T08:43:18;95070.63;;;19.72
32039;BMP280;18549;42.286;22.688;2023-05-16T08:45:45;95061.37;;;19.72
32039;BMP280;18549;42.286;22.688;2023-05-16T08:48:15;95072.22;;;19.73
32039;BMP280;18549;42.286;22.688;2023-05-16T08:50:42;95063.44;;;19.69
32039;BMP280;18549;42.286;22.688;2023-05-16T08:53:11;95051.41;;;19.56
32039;BMP280;18549;42.286;22.688;2023-05-16T08:55:40;95071.66;;;19.63
32039;BMP280;18549;42.286;22.688;2023-05-16T08:58:07;95076.78;;;19.69
32039;BMP280;18549;42.286;22.688;2023-05-16T09:00:34;95070.81;;;19.70
32039;BMP280;18549;42.286;22.688;2023-05-16T09:03:01;95064.06;;;19.71
32039;BMP280;18549;42.286;22.688;2023-05-16T09:05:29;95060.47;;;19.65
32039;BMP280;18549;42.286;22.688;2023-05-16T09:07:56;95078.50;;;19.77
32039;BMP280;18549;42.286;22.688;2023-05-16T09:10:23;95075.81;;;19.86
32039;BMP280;18549;42.286;22.688;2023-05-16T09:12:50;95066.53;;;19.86
32039;BMP280;18549;42.286;22.688;2023-05-16T09:15:17;95067.16;;;19.88
32039;BMP280;18549;42.286;22.688;2023-05-16T09:17:46;95070.56;;;19.95
32039;BMP280;18549;42.286;22.688;2023-05-16T09:20:14;95070.72;;;19.94
32039;BMP280;18549;42.286;22.688;2023-05-16T09:22:51;95076.66;;;20.01
32039;BMP280;18549;42.286;22.688;2023-05-16T09:25:18;95077.44;;;20.01
32039;BMP280;18549;42.286;22.688;2023-05-16T09:27:45;95069.25;;;20.07
32039;BMP280;18549;42.286;22.688;2023-05-16T09:30:13;95067.16;;;20.11
32039;BMP280;18549;42.286;22.688;2023-05-16T09:32:42;95066.66;;;20.15
32039;BMP280;18549;42.286;22.688;2023-05-16T09:35:10;95048.06;;;20.24
32039;BMP280;18549;42.286;22.688;2023-05-16T09:37:43;95039.16;;;20.36
32039;BMP280;18549;42.286;22.688;2023-05-16T09:40:12;95040.66;;;20.45
32039;BMP280;18549;42.286;22.688;2023-05-16T09:42:39;95039.37;;;20.49
32039;BMP280;18549;42.286;22.688;2023-05-16T09:45:07;95024.56;;;20.53
32039;BMP280;18549;42.286;22.688;2023-05-16T09:47:37;95009.13;;;20.56
32039;BMP280;18549;42.286;22.688;2023-05-16T09:50:11;95009.06;;;20.64
32039;BMP280;18549;42.286;22.688;2023-05-16T09:52:39;95005.88;;;20.70
32039;BMP280;18549;42.286;22.688;2023-05-16T09:55:06;95008.66;;;20.75
32039;BMP280;18549;42.286;22.688;2023-05-16T09:57:36;95014.13;;;20.79
32039;BMP280;18549;42.286;22.688;2023-05-16T10:00:05;95016.13;;;20.83
32039;BMP280;18549;42.286;22.688;2023-05-16T10:02:33;95012.31;;;20.87
32039;BMP280;18549;42.286;22.688;2023-05-16T10:05:00;95017.63;;;20.92
32039;BMP280;18549;42.286;22.688;2023-05-16T10:07:27;95005.47;;;20.95
32039;BMP280;18549;42.286;22.688;2023-05-16T10:09:57;95014.44;;;20.98
32039;BMP280;18549;42.286;22.688;2023-05-16T10:12:28;95005.62;;;20.94
32039;BMP280;18549;42.286;22.688;2023-05-16T10:14:58;95002.34;;;20.93
32039;BMP280;18549;42.286;22.688;2023-05-16T10:17:27;94992.78;;;20.89
32039;BMP280;18549;42.286;22.688;2023-05-16T10:19:57;94994.34;;;20.90
32039;BMP280;18549;42.286;22.688;2023-05-16T10:22:24;95005.38;;;20.89
32039;BMP280;18549;42.286;22.688;2023-05-16T10:24:57;94994.00;;;20.93
32039;BMP280;18549;42.286;22.688;2023-05-16T10:27:26;94990.94;;;20.97
32039;BMP280;18549;42.286;22.688;2023-05-16T10:29:54;95000.59;;;20.94
32039;BMP280;18549;42.286;22.688;2023-05-16T10:32:23;94991.22;;;20.88
32039;BMP280;18549;42.286;22.688;2023-05-16T10:34:51;94988.53;;;20.89
32039;BMP280;18549;42.286;22.688;2023-05-16T10:37:19;94998.50;;;20.97
32039;BMP280;18549;42.286;22.688;2023-05-16T10:39:47;94998.09;;;20.94
32039;BMP280;18549;42.286;22.688;2023-05-16T10:42:14;95002.16;;;20.95
32039;BMP280;18549;42.286;22.688;2023-05-16T10:44:42;95005.75;;;21.00
32039;BMP280;18549;42.286;22.688;2023-05-16T10:47:09;95001.47;;;21.01
32039;BMP280;18549;42.286;22.688;2023-05-16T10:49:39;95005.03;;;20.92
32039;BMP280;18549;42.286;22.688;2023-05-16T10:52:08;95001.56;;;20.93
32039;BMP280;18549;42.286;22.688;2023-05-16T10:54:36;94992.16;;;20.87
32039;BMP280;18549;42.286;22.688;2023-05-16T10:57:04;95001.47;;;20.86
32039;BMP280;18549;42.286;22.688;2023-05-16T10:59:40;95012.47;;;20.85
32039;BMP280;18549;42.286;22.688;2023-05-16T11:02:21;95013.72;;;20.89
32039;BMP280;18549;42.286;22.688;2023-05-16T11:04:51;95019.88;;;20.87
32039;BMP280;18549;42.286;22.688;2023-05-16T11:07:19;95016.69;;;20.93
32039;BMP280;18549;42.286;22.688;2023-05-16T11:10:06;95028.31;;;20.94
32039;BMP280;18549;42.286;22.688;2023-05-16T11:12:37;95021.72;;;20.93
32039;BMP280;18549;42.286;22.688;2023-05-16T11:15:18;95023.09;;;20.95
32039;BMP280;18549;42.286;22.688;2023-05-16T11:17:46;95023.53;;;20.99
32039;BMP280;18549;42.286;22.688;2023-05-16T11:20:25;95013.47;;;20.99
32039;BMP280;18549;42.286;22.688;2023-05-16T11:23:17;94994.34;;;21.04
32039;BMP280;18549;42.286;22.688;2023-05-16T11:25:45;94984.09;;;21.06
32039;BMP280;18549;42.286;22.688;2023-05-16T11:28:13;94985.94;;;21.12
32039;BMP280;18549;42.286;22.688;2023-05-16T11:30:42;94991.38;;;21.15
32039;BMP280;18549;42.286;22.688;2023-05-16T11:33:08;94994.69;;;21.16
32039;BMP280;18549;42.286;22.688;2023-05-16T11:35:38;94974.34;;;21.17
32039;BMP280;18549;42.286;22.688;2023-05-16T11:38:05;94967.94;;;21.15
32039;BMP280;18549;42.286;22.688;2023-05-16T11:40:32;94962.22;;;21.20
32039;BMP280;18549;42.286;22.688;2023-05-16T11:42:59;94961.94;;;21.16
32039;BMP280;18549;42.286;22.688;2023-05-16T11:45:27;94966.28;;;21.21
32039;BMP280;18549;42.286;22.688;2023-05-16T11:48:00;94963.06;;;21.27
32039;BMP280;18549;42.286;22.688;2023-05-16T11:50:28;94962.19;;;21.35
32039;BMP280;18549;42.286;22.688;2023-05-16T11:52:56;94950.28;;;21.43
32039;BMP280;18549;42.286;22.688;2023-05-16T11:55:24;94955.37;;;21.50
32039;BMP280;18549;42.286;22.688;2023-05-16T11:57:51;94956.59;;;21.53
32039;BMP280;18549;42.286;22.688;2023-05-16T12:00:20;94951.03;;;21.58
32039;BMP280;18549;42.286;22.688;2023-05-16T12:02:48;94961.34;;;21.63
32039;BMP280;18549;42.286;22.688;2023-05-16T12:05:17;94952.31;;;21.68
32039;BMP280;18549;42.286;22.688;2023-05-16T12:07:45;94957.78;;;21.72
32039;BMP280;18549;42.286;22.688;2023-05-16T12:10:15;94964.28;;;21.81
32039;BMP280;18549;42.286;22.688;2023-05-16T12:12:44;94966.66;;;21.88
32039;BMP280;18549;42.286;22.688;2023-05-16T12:15:12;94990.41;;;21.94
32039;BMP280;18549;42.286;22.688;2023-05-16T12:17:39;95002.50;;;21.98
32039;BMP280;18549;42.286;22.688;2023-05-16T12:20:09;94999.38;;;21.96
32039;BMP280;18549;42.286;22.688;2023-05-16T12:22:38;95008.41;;;21.91
32039;BMP280;18549;42.286;22.688;2023-05-16T12:25:24;95007.75;;;21.83
32039;BMP280;18549;42.286;22.688;2023-05-16T12:27:52;95014.81;;;21.73
32039;BMP280;18549;42.286;22.688;2023-05-16T12:30:21;95008.91;;;21.66
32039;BMP280;18549;42.286;22.688;2023-05-16T12:32:51;95010.56;;;21.59
32039;BMP280;18549;42.286;22.688;2023-05-16T12:35:18;94999.63;;;21.52
32039;BMP280;18549;42.286;22.688;2023-05-16T12:37:45;95007.19;;;21.52
32039;BMP280;18549;42.286;22.688;2023-05-16T12:40:12;94996.88;;;21.47
32039;BMP280;18549;42.286;22.688;2023-05-16T12:42:42;95015.84;;;21.43
32039;BMP280;18549;42.286;22.688;2023-05-16T12:45:13;95016.63;;;21.44
32039;BMP280;18549;42.286;22.688;2023-05-16T12:47:41;95009.84;;;21.44
32039;BMP280;18549;42.286;22.688;2023-05-16T12:50:09;95025.94;;;21.43
32039;BMP280;18549;42.286;22.688;2023-05-16T12:52:37;95030.97;;;21.43
32039;BMP280;18549;42.286;22.688;2023-05-16T12:55:04;95032.94;;;21.48
32039;BMP280;18549;42.286;22.688;2023-05-16T12:57:31;95028.88;;;21.47
32039;BMP280;18549;42.286;22.688;2023-05-16T12:59:59;95028.69;;;21.48
32039;BMP280;18549;42.286;22.688;2023-05-16T13:02:26;95021.91;;;21.49
32039;BMP280;18549;42.286;22.688;2023-05-16T13:04:52;95029.47;;;21.49
32039;BMP280;18549;42.286;22.688;2023-05-16T13:07:19;95032.25;;;21.39
32039;BMP280;18549;42.286;22.688;2023-05-16T13:09:45;95028.84;;;21.32
32039;BMP280;18549;42.286;22.688;2023-05-16T13:12:12;95025.22;;;21.20
32039;BMP280;18549;42.286;22.688;2023-05-16T13:14:40;95023.56;;;21.42
32039;BMP280;18549;42.286;22.688;2023-05-16T13:17:08;95026.78;;;21.50
32039;BMP280;18549;42.286;22.688;2023-05-16T13:19:36;95037.66;;;21.51
32039;BMP280;18549;42.286;22.688;2023-05-16T13:22:03;95039.03;;;21.53
32039;BMP280;18549;42.286;22.688;2023-05-16T13:24:29;95041.56;;;21.53
32039;BMP280;18549;42.286;22.688;2023-05-16T13:26:56;95040.84;;;21.59
32039;BMP280;18549;42.286;22.688;2023-05-16T13:29:23;95037.28;;;21.53
32039;BMP280;18549;42.286;22.688;2023-05-16T13:31:50;95049.53;;;21.56
32039;BMP280;18549;42.286;22.688;2023-05-16T13:34:18;95060.16;;;21.52
32039;BMP280;18549;42.286;22.688;2023-05-16T13:36:45;95058.59;;;21.51
32039;BMP280;18549;42.286;22.688;2023-05-16T13:39:13;95062.66;;;21.52
32039;BMP280;18549;42.286;22.688;2023-05-16T13:41:40;95068.94;;;21.56
32039;BMP280;18549;42.286;22.688;2023-05-16T13:44:06;95072.75;;;21.52
32039;BMP280;18549;42.286;22.688;2023-05-16T13:46:33;95071.97;;;21.51
32039;BMP280;18549;42.286;22.688;2023-05-16T13:49:00;95077.53;;;21.47
32039;BMP280;18549;42.286;22.688;2023-05-16T13:51:28;95077.53;;;21.47
32039;BMP280;18549;42.286;22.688;2023-05-16T13:53:56;95085.72;;;21.49
32039;BMP280;18549;42.286;22.688;2023-05-16T13:56:23;95087.09;;;21.51
32039;BMP280;18549;42.286;22.688;2023-05-16T13:58:50;95079.81;;;21.42
32039;BMP280;18549;42.286;22.688;2023-05-16T14:01:17;95090.41;;;21.38